NCAR-RAP Real-Time Weather Data

Output produced by METARs form (08 May 2021  17:06 UTC)
found at http://weather.rap.ucar.edu/surface/
 
KCHA 081653Z 24006KT 10SM BKN080 BKN110 18/07 A3016 RMK AO2 SLP210 T01780067
KCHA 081553Z 23004KT 10SM BKN080 BKN110 17/06 A3015 RMK AO2 SLP207 T01720061
KCHA 081453Z 00000KT 10SM BKN090 BKN250 17/07 A3015 RMK AO2 SLP206 T01670072 51015
KCHA 081353Z 00000KT 10SM BKN110 BKN250 16/06 A3014 RMK AO2 SLP202 T01560061
KCHA 081253Z 00000KT 10SM BKN110 BKN250 14/07 A3012 RMK AO2 SLP197 T01440072
KCHA 081153Z 14003KT 10SM BKN110 BKN250 12/08 A3011 RMK AO2 SLP191 T01220078 10122 20089 53008
KCHA 081053Z 10003KT 10SM BKN120 11/07 A3009 RMK AO2 SLP185 T01110067
KCHA 080953Z 00000KT 10SM SCT140 12/06 A3009 RMK AO2 SLP185 T01170061
KCHA 080853Z AUTO 00000KT 10SM CLR 11/07 A3008 RMK AO2 SLP183 T01060072 55001
KCHA 080753Z AUTO 00000KT 10SM CLR 09/07 A3008 RMK AO2 SLP181 T00940067
KCHA 080653Z AUTO 16003KT 10SM CLR 12/05 A3008 RMK AO2 SLP182 T01170050
KCHA 080553Z AUTO 16003KT 10SM CLR 12/06 A3009 RMK AO2 SLP184 T01170056 10189 20111 53006
KCHA 080453Z AUTO 18004KT 10SM CLR 12/06 A3008 RMK AO2 SLP182 T01220056 402170106
KCHA 080353Z 18005KT 10SM CLR 13/05 A3007 RMK AO2 SLP179 LAST T01330050
KCHA 080253Z 18004KT 10SM CLR 14/04 A3007 RMK AO2 SLP178 T01440044 53002
KCHA 080153Z 23004KT 10SM CLR 17/03 A3007 RMK AO2 SLP178 T01670033
KCHA 080053Z 25004KT 10SM CLR 18/02 A3006 RMK AO2 SLP175 T01780022
KCHA 072353Z 29006KT 10SM FEW070 19/02 A3006 RMK AO2 SLP176 T01890017 10217 20189 56007
KCHA 072253Z 31008KT 10SM SCT075 21/01 A3007 RMK AO2 SLP177 T02060006
KCHA 072153Z 31007G17KT 10SM SCT075 21/00 A3007 RMK AO2 SLP178 T02060000
KCHA 072053Z 29010KT 10SM SCT075 20/01 A3008 RMK AO2 SLP183 T02000006 56015
KCHA 071953Z 29010G19KT 10SM SCT070 21/01 A3009 RMK AO2 SLP186 T02110011
KCHA 071853Z 32009G16KT 10SM SCT065 20/01 A3011 RMK AO2 SLP191 T02000011
KCHA 071753Z 35014G22KT 10SM SCT065 19/01 A3013 RMK AO2 SLP198 T01940011 10200 20117 58007
KCHA 071653Z 35012G25KT 10SM SCT065 19/01 A3015 RMK AO2 SLP207 T01890006
KCHA 071553Z 33012G25KT 10SM SCT050 SCT070 18/02 A3016 RMK AO2 SLP208 T01830022
KCHA 071453Z 32013KT 10SM FEW042 16/02 A3015 RMK AO2 SLP206 T01610022 51016
KCHA 071353Z 32011KT 10SM CLR 14/04 A3014 RMK AO2 SLP204 T01440044
KCHA 071253Z 33008G17KT 10SM SCT025 12/06 A3012 RMK AO2 SLP197 T01220056
KCHA 071153Z 32006KT 10SM SCT025 SCT037 12/07 A3010 RMK AO2 SLP190 T01220072 10122 20106 53020
KCHA 071053Z 33004KT 10SM FEW012 SCT025 BKN037 12/07 A3007 RMK AO2 SLP177 T01170072 $
KCHA 070953Z 00000KT 10SM BKN028 OVC036 12/08 A3005 RMK AO2 SLP170 T01220078 $
KCHA 070920Z AUTO 00000KT 10SM BKN029 12/07 A3004 RMK AO2 T01170072 $
KCHA 070853Z AUTO 00000KT 10SM CLR 11/07 A3004 RMK AO2 SLP169 T01110072 55005 $
KCHA 070753Z AUTO 00000KT 10SM CLR 12/07 A3004 RMK AO2 SLP167 T01170072 $
KCHA 070653Z AUTO 20003KT 10SM CLR 11/08 A3004 RMK AO2 SLP170 T01110083 $
KCHA 070553Z AUTO 28005KT 10SM CLR 11/08 A3006 RMK AO2 SLP175 60000 T01110083 10206 20111 56007 $
KCHA 070453Z AUTO 00000KT 10SM CLR 12/08 A3006 RMK AO2 SLP177 T01220083 402390089 $
KCHA 070353Z 00000KT 10SM CLR 13/08 A3007 RMK AO2 SLP178 LAST T01280083 $
KCHA 070253Z 33007KT 10SM FEW055 BKN075 14/08 A3008 RMK AO2 PK WND 29026/0158 RAB27E37 SLP181 P0000 60000 T01440083 50026 $
KCHA 070153Z 30015G24KT 10SM FEW040 OVC080 15/08 A3008 RMK AO2 PK WND 29030/0127 RAB28E42 SLP182 P0000 T01500083 $
KCHA 070053Z 23004KT 10SM SCT055 SCT090 BKN250 19/03 A3001 RMK AO2 SLP156 T01940028
KCHA 062353Z 26007KT 10SM FEW070 SCT250 21/01 A3000 RMK AO2 SLP154 T02060011 10239 20200 55005
KCHA 062253Z 28005KT 10SM FEW070 FEW250 23/01 A2999 RMK AO2 SLP153 T02280006
KCHA 062153Z 26006KT 10SM CLR 23/M02 A3000 RMK AO2 SLP155 T02281017
KCHA 062053Z 02008KT 10SM FEW075 24/M01 A3001 RMK AO2 SLP158 T02391011 56028
KCHA 061953Z 00000KT 10SM FEW070 22/02 A3003 RMK AO2 SLP165 T02220017
KCHA 061853Z VRB05KT 10SM FEW070 FEW250 22/03 A3005 RMK AO2 SLP174 T02170033
KCHA 061753Z 28004KT 10SM FEW060 FEW200 SCT250 20/03 A3010 RMK AO2 SLP188 T02000028 10206 20117 58016